createdAt,value
2018-10-21T00:00:13.733Z,11.43
2018-10-21T00:02:44.292Z,10.60
2018-10-21T00:05:13.630Z,11.20
2018-10-21T00:07:49.758Z,11.37
2018-10-21T00:10:19.089Z,10.47
2018-10-21T00:12:48.459Z,11.60
2018-10-21T00:15:18.208Z,11.60
2018-10-21T00:17:50.234Z,10.13
2018-10-21T00:20:19.665Z,10.60
2018-10-21T00:22:49.337Z,10.23
2018-10-21T00:25:18.659Z,10.03
2018-10-21T00:27:48.724Z,11.63
2018-10-21T00:30:18.644Z,11.60
2018-10-21T00:32:48.191Z,11.23
2018-10-21T00:35:18.201Z,10.80
2018-10-21T00:37:51.192Z,10.40
2018-10-21T00:40:20.470Z,11.43
2018-10-21T00:42:49.937Z,11.53
2018-10-21T00:45:19.446Z,11.20
2018-10-21T00:47:49.540Z,10.97
2018-10-21T00:50:18.848Z,10.67
2018-10-21T00:52:48.148Z,11.50
2018-10-21T00:55:17.444Z,11.00
2018-10-21T00:57:46.722Z,12.43
2018-10-21T01:00:16.138Z,10.40
2018-10-21T01:02:45.440Z,11.70
2018-10-21T01:05:14.774Z,11.37
2018-10-21T01:07:44.097Z,11.40
2018-10-21T01:10:13.542Z,11.87
2018-10-21T01:12:43.509Z,11.60
2018-10-21T01:15:13.645Z,10.80
2018-10-21T01:17:42.939Z,10.30
2018-10-21T01:20:13.342Z,10.80
2018-10-21T01:22:42.987Z,9.30
2018-10-21T01:25:12.322Z,10.97
2018-10-21T01:27:42.172Z,10.60
2018-10-21T01:30:13.316Z,11.60
2018-10-21T01:32:42.672Z,11.10
2018-10-21T01:35:12.104Z,11.60
2018-10-21T01:37:41.570Z,11.37
2018-10-21T01:41:13.803Z,10.90
2018-10-21T01:43:43.171Z,11.40
2018-10-21T01:46:12.548Z,11.10
2018-10-21T01:48:41.871Z,10.93
2018-10-21T01:51:11.972Z,12.10
2018-10-21T01:53:42.222Z,11.93
2018-10-21T01:56:11.570Z,11.13
2018-10-21T01:58:40.891Z,10.90
2018-10-21T02:01:10.253Z,10.67
2018-10-21T02:03:39.619Z,10.83
2018-10-21T02:06:08.986Z,11.87
2018-10-21T02:08:38.319Z,11.33
2018-10-21T02:11:07.615Z,11.87
2018-10-21T02:13:37.298Z,11.63
2018-10-21T02:16:06.634Z,12.47
2018-10-21T02:18:37.072Z,11.40
2018-10-21T02:21:06.556Z,12.43
2018-10-21T02:23:35.854Z,12.53
2018-10-21T02:26:05.247Z,12.50
2018-10-21T02:28:34.734Z,11.37
2018-10-21T02:31:04.114Z,11.63
2018-10-21T02:33:33.546Z,12.70
2018-10-21T02:36:02.872Z,12.77
2018-10-21T02:38:32.146Z,12.67
2018-10-21T02:41:32.276Z,12.83
2018-10-21T02:44:02.240Z,12.37
2018-10-21T02:46:31.867Z,12.83
2018-10-21T02:49:02.065Z,12.80
2018-10-21T02:51:31.368Z,14.50
2018-10-21T02:54:00.637Z,12.87
2018-10-21T02:56:31.384Z,12.57
2018-10-21T02:59:01.235Z,12.77
2018-10-21T03:01:30.555Z,11.37
2018-10-21T03:03:59.916Z,12.90
2018-10-21T03:06:29.249Z,11.63
2018-10-21T03:08:58.624Z,13.10
2018-10-21T03:11:27.931Z,12.97
2018-10-21T03:13:57.261Z,11.90
2018-10-21T03:16:26.623Z,11.80
2018-10-21T03:18:56.375Z,13.03
2018-10-21T03:21:26.723Z,12.83
2018-10-21T03:23:56.997Z,12.97
2018-10-21T03:26:26.559Z,14.63
2018-10-21T03:28:55.885Z,14.63
2018-10-21T03:31:25.207Z,16.57
2018-10-21T03:33:54.654Z,15.43
2018-10-21T03:36:23.991Z,16.37
2018-10-21T03:38:53.333Z,15.93
2018-10-21T03:41:23.064Z,15.40
2018-10-21T03:43:53.159Z,15.80
2018-10-21T03:46:22.521Z,15.70
2018-10-21T03:48:51.890Z,16.60
2018-10-21T03:51:21.185Z,14.50
2018-10-21T03:53:50.519Z,14.13
2018-10-21T03:56:19.846Z,13.10
2018-10-21T03:58:49.150Z,14.27
2018-10-21T04:01:18.491Z,14.07
2018-10-21T04:03:48.239Z,14.37
2018-10-21T04:06:17.810Z,14.77
2018-10-21T04:08:47.103Z,14.33
2018-10-21T04:11:16.439Z,14.30
2018-10-21T04:13:45.736Z,14.53
2018-10-21T04:16:15.295Z,14.33
2018-10-21T04:18:44.557Z,14.67
2018-10-21T04:21:13.858Z,14.87
2018-10-21T04:23:44.076Z,15.20
2018-10-21T04:26:13.576Z,14.40
2018-10-21T04:28:42.910Z,16.20
2018-10-21T04:31:12.246Z,14.97
2018-10-21T04:33:43.088Z,15.40
2018-10-21T04:36:14.575Z,16.90
2018-10-21T04:40:06.750Z,15.43
2018-10-21T04:42:36.046Z,17.27
2018-10-21T04:45:05.648Z,15.57
2018-10-21T04:47:35.260Z,16.20
2018-10-21T04:50:04.605Z,15.87
2018-10-21T04:52:34.461Z,16.60
2018-10-21T04:55:08.888Z,15.30
2018-10-21T04:57:40.217Z,15.07
2018-10-21T05:00:11.513Z,16.47
2018-10-21T05:02:40.868Z,16.63
2018-10-21T05:05:11.264Z,15.80
2018-10-21T05:07:41.482Z,15.23
2018-10-21T05:10:32.214Z,15.50
2018-10-21T05:13:01.595Z,14.57
2018-10-21T05:15:32.065Z,14.70
2018-10-21T05:18:01.321Z,16.50
2018-10-21T05:20:30.623Z,13.93
2018-10-21T05:22:59.969Z,14.90
2018-10-21T05:25:29.261Z,15.10
2018-10-21T05:27:59.125Z,15.17
2018-10-21T05:30:28.460Z,15.87
2018-10-21T05:32:57.774Z,16.90
2018-10-21T05:35:27.106Z,14.07
2018-10-21T05:37:56.931Z,14.27
2018-10-21T05:40:26.158Z,15.43
2018-10-21T05:42:55.480Z,14.90
2018-10-21T05:45:24.760Z,14.83
2018-10-21T05:47:54.094Z,14.60
2018-10-21T05:50:23.553Z,15.57
2018-10-21T05:52:53.009Z,17.23
2018-10-21T05:55:22.428Z,17.30
2018-10-21T05:57:51.981Z,19.00
2018-10-21T06:00:21.288Z,17.23
2018-10-21T06:02:50.696Z,17.03
2018-10-21T06:05:38.582Z,18.40
2018-10-21T06:08:08.215Z,21.60
2018-10-21T06:10:37.510Z,20.93
2018-10-21T06:13:07.078Z,20.60
2018-10-21T06:15:36.418Z,20.70
2018-10-21T06:18:07.786Z,23.37
2018-10-21T06:20:38.987Z,22.00
2018-10-21T06:23:08.685Z,24.47
2018-10-21T06:25:38.046Z,22.77
2018-10-21T06:28:07.556Z,23.90
2018-10-21T06:30:37.066Z,23.90
2018-10-21T06:33:06.550Z,24.73
2018-10-21T06:35:35.864Z,27.90
2018-10-21T06:38:05.998Z,25.63
2018-10-21T06:40:35.300Z,27.80
2018-10-21T06:43:04.665Z,27.67
2018-10-21T06:45:34.253Z,29.33
2018-10-21T06:48:03.559Z,27.60
2018-10-21T06:50:32.883Z,27.53
2018-10-21T06:53:02.248Z,26.70
2018-10-21T06:55:31.614Z,26.67
2018-10-21T06:58:00.976Z,25.90
2018-10-21T07:00:30.345Z,26.60
2018-10-21T07:02:59.679Z,26.23
2018-10-21T07:06:15.056Z,25.13
2018-10-21T07:08:45.194Z,26.70
2018-10-21T07:11:14.881Z,26.63
2018-10-21T07:13:44.406Z,27.13
2018-10-21T07:16:14.214Z,27.80
2018-10-21T07:18:44.320Z,28.40
2018-10-21T07:21:13.832Z,29.37
2018-10-21T07:23:43.339Z,27.73
2018-10-21T07:26:12.668Z,27.83
2018-10-21T07:28:42.385Z,29.07
2018-10-21T07:31:11.720Z,26.97
2018-10-21T07:33:41.042Z,27.30
2018-10-21T07:36:10.430Z,27.80
2018-10-21T07:38:40.005Z,28.10
2018-10-21T07:41:09.361Z,27.70
2018-10-21T07:43:38.721Z,28.60
2018-10-21T07:46:08.187Z,27.57
2018-10-21T07:48:37.392Z,28.50
2018-10-21T07:51:07.792Z,25.33
2018-10-21T07:53:37.181Z,27.87
2018-10-21T07:56:06.547Z,25.47
2018-10-21T07:58:36.257Z,27.10
2018-10-21T08:01:05.744Z,27.27
2018-10-21T08:03:35.319Z,28.87
2018-10-21T08:06:33.902Z,28.93
2018-10-21T08:09:05.082Z,27.57
2018-10-21T08:11:41.468Z,27.83
2018-10-21T08:14:10.873Z,27.33
2018-10-21T08:16:40.226Z,28.00
2018-10-21T08:19:09.583Z,25.27
2018-10-21T08:21:38.950Z,26.60
2018-10-21T08:24:08.718Z,27.77
2018-10-21T08:26:38.527Z,29.80
2018-10-21T08:29:07.916Z,27.70
2018-10-21T08:31:37.340Z,26.87
2018-10-21T08:34:07.185Z,25.10
2018-10-21T08:36:37.199Z,27.07
2018-10-21T08:39:08.596Z,26.90
2018-10-21T08:41:37.964Z,26.73
2018-10-21T08:44:07.457Z,27.67
2018-10-21T08:46:37.414Z,28.87
2018-10-21T08:49:07.557Z,29.67
2018-10-21T08:51:36.884Z,29.00
2018-10-21T08:54:06.272Z,31.93
2018-10-21T08:56:35.905Z,32.93
2018-10-21T08:59:05.791Z,32.80
2018-10-21T09:01:36.146Z,33.43
2018-10-21T09:04:05.480Z,33.93
2018-10-21T09:06:34.824Z,36.40
2018-10-21T09:09:08.389Z,36.37
2018-10-21T09:11:37.653Z,32.93
2018-10-21T09:14:07.114Z,34.63
2018-10-21T09:16:36.559Z,34.33
2018-10-21T09:19:06.530Z,34.07
2018-10-21T09:21:35.889Z,33.97
2018-10-21T09:24:05.340Z,32.90
2018-10-21T09:26:34.742Z,31.80
2018-10-21T09:29:04.191Z,31.23
2018-10-21T09:31:33.780Z,34.00
2018-10-21T09:34:03.232Z,34.43
2018-10-21T09:36:32.515Z,33.10
2018-10-21T09:39:02.874Z,36.10
2018-10-21T09:41:33.889Z,34.20
2018-10-21T09:44:05.939Z,37.20
2018-10-21T09:46:35.353Z,41.00
2018-10-21T09:49:04.785Z,38.27
2018-10-21T09:51:34.800Z,37.30
2018-10-21T09:54:04.221Z,36.57
2018-10-21T09:56:33.760Z,39.67
2018-10-21T09:59:03.170Z,39.47
2018-10-21T10:01:37.786Z,36.67
2018-10-21T10:04:07.342Z,37.37
2018-10-21T10:06:36.838Z,38.00
2018-10-21T10:09:10.951Z,37.90
2018-10-21T10:11:40.424Z,36.27
2018-10-21T10:14:09.828Z,35.33
2018-10-21T10:16:39.696Z,33.97
2018-10-21T10:19:09.103Z,33.90
2018-10-21T10:21:40.120Z,33.63
2018-10-21T10:24:09.537Z,33.23
2018-10-21T10:26:38.894Z,34.10
2018-10-21T10:29:08.257Z,31.13
2018-10-21T10:31:38.340Z,33.67
2018-10-21T10:34:08.923Z,32.13
2018-10-21T10:36:38.315Z,31.50
2018-10-21T10:39:10.189Z,31.40
2018-10-21T10:41:39.937Z,29.20
2018-10-21T10:44:09.311Z,27.80
2018-10-21T10:46:39.269Z,25.57
2018-10-21T10:49:08.601Z,29.50
2018-10-21T10:51:37.996Z,25.53
2018-10-21T10:54:07.553Z,24.60
2018-10-21T10:56:37.696Z,23.03
2018-10-21T10:59:07.332Z,24.43
2018-10-21T11:01:36.912Z,24.00
2018-10-21T11:04:06.667Z,24.03
2018-10-21T11:06:36.362Z,24.20
2018-10-21T11:09:09.178Z,20.53
2018-10-21T11:11:38.580Z,18.13
2018-10-21T11:14:07.910Z,20.30
2018-10-21T11:16:37.312Z,20.40
2018-10-21T11:19:06.776Z,20.00
2018-10-21T11:21:36.648Z,20.33
2018-10-21T11:24:06.150Z,20.03
2018-10-21T11:26:35.466Z,20.43
2018-10-21T11:29:05.488Z,21.37
2018-10-21T11:31:36.062Z,20.63
2018-10-21T11:34:05.454Z,22.17
2018-10-21T11:36:34.735Z,21.83
2018-10-21T11:39:05.107Z,22.50
2018-10-21T11:41:35.368Z,23.23
2018-10-21T11:44:04.766Z,22.60
2018-10-21T11:46:34.674Z,20.97
2018-10-21T11:49:04.009Z,21.70
2018-10-21T11:51:33.296Z,21.50
2018-10-21T11:54:03.099Z,21.40
2018-10-21T11:56:33.494Z,22.30
2018-10-21T11:59:02.960Z,21.00
2018-10-21T12:01:32.375Z,18.53
2018-10-21T12:04:01.740Z,18.03
2018-10-21T12:06:31.099Z,16.93
2018-10-21T12:09:03.610Z,16.43
2018-10-21T12:11:32.974Z,18.60
2018-10-21T12:14:02.303Z,15.97
2018-10-21T12:16:33.070Z,17.03
2018-10-21T12:19:02.517Z,16.10
2018-10-21T12:21:32.524Z,15.90
2018-10-21T12:24:01.893Z,15.00
2018-10-21T12:26:31.377Z,15.13
2018-10-21T12:29:01.483Z,14.50
2018-10-21T12:31:30.924Z,13.07
2018-10-21T12:34:00.472Z,11.87
2018-10-21T12:36:29.840Z,11.20
2018-10-21T12:39:00.371Z,11.83
2018-10-21T12:41:29.666Z,11.53
2018-10-21T12:43:59.020Z,13.67
2018-10-21T12:46:28.478Z,13.33
2018-10-21T12:48:58.657Z,12.40
2018-10-21T12:51:27.994Z,12.53
2018-10-21T12:53:57.880Z,13.10
2018-10-21T12:56:27.241Z,14.33
2018-10-21T12:58:57.351Z,13.33
2018-10-21T13:01:26.825Z,14.50
2018-10-21T13:03:56.177Z,14.17
2018-10-21T13:06:25.515Z,14.27
2018-10-21T13:08:55.874Z,15.20
2018-10-21T13:11:25.240Z,12.30
2018-10-21T13:13:54.600Z,9.77
2018-10-21T13:16:23.993Z,9.93
2018-10-21T13:18:57.218Z,9.63
2018-10-21T13:21:27.028Z,7.60
2018-10-21T13:23:56.358Z,8.53
2018-10-21T13:26:25.719Z,7.60
2018-10-21T13:28:57.553Z,7.50
2018-10-21T13:31:26.919Z,8.97
2018-10-21T13:33:56.338Z,8.53
2018-10-21T13:36:26.435Z,8.40
2018-10-21T13:38:56.346Z,8.90
2018-10-21T13:41:26.542Z,8.60
2018-10-21T13:43:55.968Z,6.37
2018-10-21T13:46:25.469Z,6.40
2018-10-21T13:48:56.893Z,6.70
2018-10-21T13:51:26.287Z,7.20
2018-10-21T13:53:55.596Z,6.50
2018-10-21T13:56:25.006Z,6.67
2018-10-21T13:58:54.346Z,6.43
2018-10-21T14:01:24.023Z,5.97
2018-10-21T14:03:53.797Z,6.30
2018-10-21T14:06:23.201Z,4.30
2018-10-21T14:08:52.810Z,4.43
2018-10-21T14:11:24.196Z,3.70
2018-10-21T14:13:53.561Z,3.47
2018-10-21T14:16:23.031Z,3.40
2018-10-21T14:18:52.428Z,3.20
2018-10-21T14:21:21.754Z,3.57
2018-10-21T14:23:51.073Z,2.90
2018-10-21T14:26:20.457Z,3.83
2018-10-21T14:28:49.760Z,3.47
2018-10-21T14:31:19.114Z,3.13
2018-10-21T14:33:48.481Z,3.50
2018-10-21T14:36:18.065Z,4.20
2018-10-21T14:38:47.332Z,3.50
2018-10-21T14:41:16.760Z,3.70
2018-10-21T14:43:46.069Z,3.70
2018-10-21T14:46:15.463Z,10.17
2018-10-21T14:48:44.878Z,4.90
2018-10-21T14:51:14.409Z,3.90
2018-10-21T14:53:43.903Z,5.43
2018-10-21T14:56:13.393Z,5.37
2018-10-21T14:58:42.748Z,4.63
2018-10-21T15:01:12.280Z,4.80
2018-10-21T15:03:41.649Z,3.63
2018-10-21T15:06:11.086Z,4.27
2018-10-21T15:08:40.438Z,3.73
2018-10-21T15:11:10.249Z,4.30
2018-10-21T15:13:39.599Z,4.37
2018-10-21T15:16:08.978Z,4.50
2018-10-21T15:18:38.321Z,4.30
2018-10-21T15:21:07.710Z,4.60
2018-10-21T15:23:37.171Z,4.50
2018-10-21T15:26:06.769Z,4.20
2018-10-21T15:28:36.200Z,4.80
2018-10-21T15:31:05.696Z,4.97
2018-10-21T15:33:35.239Z,5.10
2018-10-21T15:36:04.659Z,4.80
2018-10-21T15:38:34.056Z,5.00
2018-10-21T15:41:03.463Z,6.23
2018-10-21T15:43:32.864Z,23.47
2018-10-21T15:46:02.438Z,5.40
2018-10-21T15:48:31.881Z,5.17
2018-10-21T15:51:01.219Z,5.40
2018-10-21T15:53:30.727Z,6.17
2018-10-21T15:56:00.527Z,4.83
2018-10-21T15:58:29.900Z,5.17
2018-10-21T16:00:59.250Z,4.77
2018-10-21T16:03:28.625Z,6.00
2018-10-21T16:05:58.015Z,6.20
2018-10-21T16:08:27.402Z,6.83
2018-10-21T16:10:56.895Z,5.93
2018-10-21T16:13:26.335Z,13.77
2018-10-21T16:15:55.726Z,8.07
2018-10-21T16:18:25.167Z,10.60
2018-10-21T16:20:54.516Z,8.10
2018-10-21T16:23:23.837Z,9.30
2018-10-21T16:25:53.608Z,9.20
2018-10-21T16:28:22.919Z,14.10
2018-10-21T16:30:52.285Z,12.30
2018-10-21T16:33:21.718Z,12.97
2018-10-21T16:35:51.088Z,8.90
2018-10-21T16:38:20.454Z,7.07
2018-10-21T16:40:49.964Z,9.73
2018-10-21T16:43:19.253Z,6.13
2018-10-21T16:45:48.748Z,17.07
2018-10-21T16:48:18.179Z,7.53
2018-10-21T16:50:47.522Z,9.20
2018-10-21T16:53:17.019Z,7.80
2018-10-21T16:55:46.384Z,9.10
2018-10-21T16:58:15.770Z,8.27
2018-10-21T17:00:45.281Z,7.03
2018-10-21T17:03:14.803Z,7.33
2018-10-21T17:05:44.224Z,13.97
2018-10-21T17:08:13.539Z,11.30
2018-10-21T17:10:43.203Z,10.60
2018-10-21T17:13:12.663Z,9.57
2018-10-21T17:15:41.987Z,8.57
2018-10-21T17:18:11.498Z,8.83
2018-10-21T17:20:40.876Z,9.50
2018-10-21T17:23:10.227Z,9.53
2018-10-21T17:25:39.822Z,9.40
2018-10-21T17:28:09.234Z,8.97
2018-10-21T17:30:38.624Z,8.93
2018-10-21T17:33:07.993Z,9.40
2018-10-21T17:35:37.319Z,8.57
2018-10-21T17:38:06.633Z,8.63
2018-10-21T17:40:36.161Z,8.60
2018-10-21T17:43:05.493Z,9.70
2018-10-21T17:45:34.884Z,8.97
2018-10-21T17:48:04.489Z,10.43
2018-10-21T17:50:33.912Z,8.50
2018-10-21T17:53:03.286Z,8.40
2018-10-21T17:55:32.694Z,8.60
2018-10-21T17:58:02.200Z,7.90
2018-10-21T18:00:31.557Z,9.17
2018-10-21T18:03:00.937Z,8.63
2018-10-21T18:05:30.539Z,8.07
2018-10-21T18:07:59.933Z,8.47
2018-10-21T18:10:29.717Z,8.17
2018-10-21T18:12:59.240Z,8.77
2018-10-21T18:15:28.656Z,8.63
2018-10-21T18:17:57.993Z,8.70
2018-10-21T18:20:27.410Z,9.17
2018-10-21T18:22:56.801Z,9.30
2018-10-21T18:25:26.307Z,9.43
2018-10-21T18:27:55.652Z,8.30
2018-10-21T18:30:25.080Z,9.30
2018-10-21T18:32:55.660Z,8.00
2018-10-21T18:35:25.045Z,9.20
2018-10-21T18:37:54.723Z,9.73
2018-10-21T18:40:24.321Z,9.00
2018-10-21T18:42:53.526Z,8.37
2018-10-21T18:45:22.855Z,9.13
2018-10-21T18:47:52.266Z,8.33
2018-10-21T18:50:21.623Z,8.43
2018-10-21T18:52:50.989Z,7.90
2018-10-21T18:55:20.550Z,8.50
2018-10-21T18:57:49.952Z,8.47
2018-10-21T19:00:19.838Z,9.20
2018-10-21T19:02:49.181Z,8.80
2018-10-21T19:05:18.683Z,8.40
2018-10-21T19:07:48.178Z,8.23
2018-10-21T19:10:17.688Z,8.20
2018-10-21T19:12:59.569Z,9.37
2018-10-21T19:15:16.354Z,8.80
2018-10-21T19:17:45.785Z,9.83
2018-10-21T19:20:16.524Z,8.60
2018-10-21T19:22:45.863Z,9.50
2018-10-21T19:25:16.731Z,9.37
2018-10-21T19:27:46.637Z,9.13
2018-10-21T19:30:16.865Z,9.90
2018-10-21T19:32:46.306Z,8.07
2018-10-21T19:35:16.631Z,9.10
2018-10-21T19:37:46.121Z,9.70
2018-10-21T19:40:16.409Z,8.03
2018-10-21T19:42:46.125Z,8.50
2018-10-21T19:45:15.897Z,9.53
2018-10-21T19:47:45.286Z,8.83
2018-10-21T19:50:15.916Z,9.03
2018-10-21T19:52:45.484Z,8.87
2018-10-21T19:55:15.172Z,9.20
2018-10-21T19:57:44.524Z,8.90
2018-10-21T20:00:15.370Z,10.13
2018-10-21T20:02:45.473Z,8.77
2018-10-21T20:05:15.041Z,10.20
2018-10-21T20:07:44.455Z,9.70
2018-10-21T20:10:15.167Z,9.90
2018-10-21T20:12:44.634Z,9.20
2018-10-21T20:15:14.632Z,9.43
2018-10-21T20:17:44.081Z,9.20
2018-10-21T20:20:13.944Z,9.10
2018-10-21T20:22:43.393Z,10.30
2018-10-21T20:25:13.508Z,9.50
2018-10-21T20:27:42.965Z,8.33
2018-10-21T20:30:13.761Z,10.17
2018-10-21T20:32:43.463Z,9.50
2018-10-21T20:35:13.216Z,9.33
2018-10-21T20:37:42.616Z,8.80
2018-10-21T20:40:12.476Z,9.00
2018-10-21T20:42:41.753Z,9.07
2018-10-21T20:45:12.993Z,8.33
2018-10-21T20:47:42.346Z,8.70
2018-10-21T20:50:11.813Z,8.53
2018-10-21T20:52:41.205Z,9.83
2018-10-21T20:55:10.500Z,9.00
2018-10-21T20:57:39.960Z,9.67
2018-10-21T21:00:09.477Z,9.13
2018-10-21T21:02:38.752Z,8.50
2018-10-21T21:05:10.038Z,9.30
2018-10-21T21:07:39.440Z,9.03
2018-10-21T21:10:09.450Z,10.00
2018-10-21T21:12:38.803Z,9.10
2018-10-21T21:15:09.000Z,9.33
2018-10-21T21:17:38.372Z,8.90
2018-10-21T21:20:09.671Z,8.33
2018-10-21T21:22:39.048Z,9.97
2018-10-21T21:25:08.478Z,8.77
2018-10-21T21:27:38.480Z,8.40
2018-10-21T21:30:08.766Z,9.03
2018-10-21T21:32:38.007Z,8.20
2018-10-21T21:35:08.228Z,7.80
2018-10-21T21:37:37.976Z,9.67
2018-10-21T21:40:09.270Z,8.10
2018-10-21T21:42:39.200Z,9.70
2018-10-21T21:45:09.003Z,8.90
2018-10-21T21:47:39.159Z,9.20
2018-10-21T21:50:09.131Z,9.80
2018-10-21T21:52:38.711Z,8.10
2018-10-21T21:55:08.124Z,8.90
2018-10-21T21:57:37.823Z,9.00
2018-10-21T22:00:11.792Z,8.37
2018-10-21T22:02:41.124Z,8.03
2018-10-21T22:05:10.696Z,8.50
2018-10-21T22:07:41.428Z,8.27
2018-10-21T22:10:13.143Z,8.47
2018-10-21T22:12:44.234Z,7.20
2018-10-21T22:15:14.767Z,7.50
2018-10-21T22:17:45.664Z,7.83
2018-10-21T22:20:15.044Z,7.77
2018-10-21T22:22:45.056Z,7.60
2018-10-21T22:25:14.361Z,8.17
2018-10-21T22:27:43.786Z,8.37
2018-10-21T22:30:13.087Z,8.10
2018-10-21T22:32:42.672Z,7.97
2018-10-21T22:35:12.997Z,8.57
2018-10-21T22:37:42.362Z,8.93
2018-10-21T22:40:12.438Z,8.00
2018-10-21T22:42:41.744Z,7.80
2018-10-21T22:45:11.512Z,8.20
2018-10-21T22:47:40.847Z,7.30
2018-10-21T22:50:12.146Z,8.30
2018-10-21T22:52:42.139Z,7.80
2018-10-21T22:55:11.535Z,8.20
2018-10-21T22:57:40.933Z,7.50
2018-10-21T23:00:10.746Z,7.67
2018-10-21T23:02:40.009Z,7.63
2018-10-21T23:05:09.927Z,7.10
2018-10-21T23:07:39.610Z,7.83
2018-10-21T23:10:08.979Z,7.80
2018-10-21T23:12:39.262Z,7.20
2018-10-21T23:15:08.631Z,7.53
2018-10-21T23:17:38.262Z,7.00
2018-10-21T23:20:08.727Z,6.80
2018-10-21T23:22:38.133Z,7.70
2018-10-21T23:25:08.108Z,7.30
2018-10-21T23:27:39.191Z,6.90
2018-10-21T23:30:08.660Z,6.80
2018-10-21T23:32:38.034Z,7.10
2018-10-21T23:35:08.151Z,7.57
2018-10-21T23:37:37.567Z,8.60
2018-10-21T23:40:08.470Z,8.43
2018-10-21T23:42:38.300Z,8.50
2018-10-21T23:45:07.910Z,8.27
2018-10-21T23:47:37.531Z,7.63
2018-10-21T23:50:08.162Z,8.40
2018-10-21T23:52:37.847Z,7.97
2018-10-21T23:55:07.678Z,8.30
2018-10-21T23:57:37.907Z,8.30
